sensor_id;sensor_type;location;lat;lon;timestamp;pressure;altitude;pressure_sealevel;temperature;humidity
49063;BME280;34876;51.464;-0.150;2023-03-04T00:01:38;103000.18;;;13.80;36.92
49063;BME280;34876;51.464;-0.150;2023-03-04T00:04:08;103004.60;;;12.33;39.43
49063;BME280;34876;51.464;-0.150;2023-03-04T00:06:38;103011.41;;;13.49;37.85
49063;BME280;34876;51.464;-0.150;2023-03-04T00:09:07;103005.07;;;13.84;37.92
49063;BME280;34876;51.464;-0.150;2023-03-04T00:11:36;103003.60;;;14.02;37.26
49063;BME280;34876;51.464;-0.150;2023-03-04T00:14:06;102997.34;;;14.52;36.59
49063;BME280;34876;51.464;-0.150;2023-03-04T00:16:36;102999.17;;;14.92;35.70
49063;BME280;34876;51.464;-0.150;2023-03-04T00:19:06;102995.26;;;15.51;33.44
49063;BME280;34876;51.464;-0.150;2023-03-04T00:21:36;102997.68;;;14.34;34.84
49063;BME280;34876;51.464;-0.150;2023-03-04T00:24:05;102993.21;;;14.91;34.34
49063;BME280;34876;51.464;-0.150;2023-03-04T00:26:35;102993.99;;;14.70;35.10
49063;BME280;34876;51.464;-0.150;2023-03-04T00:29:03;102992.79;;;14.87;35.53
49063;BME280;34876;51.464;-0.150;2023-03-04T00:31:32;102994.52;;;14.62;36.00
49063;BME280;34876;51.464;-0.150;2023-03-04T00:34:03;102999.92;;;14.08;34.63
49063;BME280;34876;51.464;-0.150;2023-03-04T00:36:33;102989.54;;;14.19;37.16
49063;BME280;34876;51.464;-0.150;2023-03-04T00:39:03;102988.61;;;13.79;37.47
49063;BME280;34876;51.464;-0.150;2023-03-04T00:41:32;102986.49;;;13.81;37.84
49063;BME280;34876;51.464;-0.150;2023-03-04T00:44:01;102978.86;;;15.05;35.22
49063;BME280;34876;51.464;-0.150;2023-03-04T00:46:29;102979.94;;;14.73;35.84
49063;BME280;34876;51.464;-0.150;2023-03-04T00:48:58;102975.25;;;15.36;34.48
49063;BME280;34876;51.464;-0.150;2023-03-04T00:51:27;102989.99;;;13.32;36.57
49063;BME280;34876;51.464;-0.150;2023-03-04T00:54:03;102972.47;;;14.74;35.78
49063;BME280;34876;51.464;-0.150;2023-03-04T00:56:32;102971.54;;;15.32;34.75
49063;BME280;34876;51.464;-0.150;2023-03-04T00:59:01;102984.99;;;13.85;37.59
49063;BME280;34876;51.464;-0.150;2023-03-04T01:03:31;103006.21;;;10.25;43.13
49063;BME280;34876;51.464;-0.150;2023-03-04T01:06:01;102992.14;;;12.18;38.61
49063;BME280;34876;51.464;-0.150;2023-03-04T01:08:29;102992.02;;;12.26;41.11
49063;BME280;34876;51.464;-0.150;2023-03-04T01:10:58;102992.36;;;11.26;42.52
49063;BME280;34876;51.464;-0.150;2023-03-04T01:13:27;102983.63;;;12.59;39.21
49063;BME280;34876;51.464;-0.150;2023-03-04T01:15:56;103000.37;;;11.88;41.08
49063;BME280;34876;51.464;-0.150;2023-03-04T01:18:26;102984.99;;;11.09;43.88
49063;BME280;34876;51.464;-0.150;2023-03-04T01:20:55;102983.92;;;12.94;40.18
49063;BME280;34876;51.464;-0.150;2023-03-04T01:23:25;102976.41;;;14.87;36.02
49063;BME280;34876;51.464;-0.150;2023-03-04T01:25:55;102977.62;;;14.80;36.05
49063;BME280;34876;51.464;-0.150;2023-03-04T01:28:24;102982.81;;;14.88;35.67
49063;BME280;34876;51.464;-0.150;2023-03-04T01:30:54;102991.17;;;13.43;38.51
49063;BME280;34876;51.464;-0.150;2023-03-04T01:33:24;102990.93;;;12.79;38.22
49063;BME280;34876;51.464;-0.150;2023-03-04T01:35:52;102985.62;;;14.29;36.54
49063;BME280;34876;51.464;-0.150;2023-03-04T01:38:21;102978.19;;;14.19;37.00
49063;BME280;34876;51.464;-0.150;2023-03-04T01:40:50;102980.05;;;13.74;36.06
49063;BME280;34876;51.464;-0.150;2023-03-04T01:43:21;102972.40;;;14.22;37.09
49063;BME280;34876;51.464;-0.150;2023-03-04T01:45:56;102968.30;;;15.10;35.16
49063;BME280;34876;51.464;-0.150;2023-03-04T01:48:27;102977.50;;;13.61;36.91
49063;BME280;34876;51.464;-0.150;2023-03-04T01:50:56;102975.44;;;13.53;38.40
49063;BME280;34876;51.464;-0.150;2023-03-04T01:53:27;102970.19;;;13.85;36.49
49063;BME280;34876;51.464;-0.150;2023-03-04T01:56:01;102983.27;;;12.81;38.10
49063;BME280;34876;51.464;-0.150;2023-03-04T01:58:31;102981.42;;;11.40;41.99
49063;BME280;34876;51.464;-0.150;2023-03-04T02:01:00;102978.36;;;11.66;40.84
49063;BME280;34876;51.464;-0.150;2023-03-04T02:03:29;102961.93;;;13.65;37.56
49063;BME280;34876;51.464;-0.150;2023-03-04T02:05:59;102955.48;;;14.84;36.11
49063;BME280;34876;51.464;-0.150;2023-03-04T02:08:28;102953.85;;;14.76;35.98
49063;BME280;34876;51.464;-0.150;2023-03-04T02:10:57;102947.17;;;14.95;35.81
49063;BME280;34876;51.464;-0.150;2023-03-04T02:13:26;102958.47;;;12.70;38.81
49063;BME280;34876;51.464;-0.150;2023-03-04T02:15:55;102947.89;;;13.85;36.87
49063;BME280;34876;51.464;-0.150;2023-03-04T02:18:25;102954.04;;;11.83;41.93
49063;BME280;34876;51.464;-0.150;2023-03-04T02:21:02;102947.65;;;13.39;38.80
49063;BME280;34876;51.464;-0.150;2023-03-04T02:23:39;102943.12;;;13.74;37.69
49063;BME280;34876;51.464;-0.150;2023-03-04T02:26:19;102943.12;;;14.24;36.27
49063;BME280;34876;51.464;-0.150;2023-03-04T02:28:51;102951.09;;;13.38;39.11
49063;BME280;34876;51.464;-0.150;2023-03-04T02:31:24;102934.98;;;14.27;36.12
49063;BME280;34876;51.464;-0.150;2023-03-04T02:33:56;102938.87;;;14.85;35.48
49063;BME280;34876;51.464;-0.150;2023-03-04T02:36:32;102937.42;;;14.44;36.94
49063;BME280;34876;51.464;-0.150;2023-03-04T02:39:07;102936.54;;;14.75;36.18
49063;BME280;34876;51.464;-0.150;2023-03-04T02:41:37;102931.95;;;15.04;35.71
49063;BME280;34876;51.464;-0.150;2023-03-04T02:44:15;102924.77;;;15.86;34.20
49063;BME280;34876;51.464;-0.150;2023-03-04T02:46:45;102939.03;;;12.51;40.54
49063;BME280;34876;51.464;-0.150;2023-03-04T02:49:14;102939.80;;;12.64;38.85
49063;BME280;34876;51.464;-0.150;2023-03-04T02:51:43;102941.47;;;11.46;41.26
49063;BME280;34876;51.464;-0.150;2023-03-04T02:54:14;102930.40;;;12.77;39.80
49063;BME280;34876;51.464;-0.150;2023-03-04T02:56:44;102918.42;;;13.82;36.73
49063;BME280;34876;51.464;-0.150;2023-03-04T02:59:13;102925.36;;;12.82;40.47
49063;BME280;34876;51.464;-0.150;2023-03-04T03:01:42;102915.91;;;14.87;36.05
49063;BME280;34876;51.464;-0.150;2023-03-04T03:04:12;102912.69;;;14.20;36.29
49063;BME280;34876;51.464;-0.150;2023-03-04T03:06:42;102923.30;;;13.14;38.66
49063;BME280;34876;51.464;-0.150;2023-03-04T03:09:11;102912.54;;;14.42;35.99
49063;BME280;34876;51.464;-0.150;2023-03-04T03:11:40;102907.54;;;14.97;35.98
49063;BME280;34876;51.464;-0.150;2023-03-04T03:14:09;102902.51;;;14.91;35.47
49063;BME280;34876;51.464;-0.150;2023-03-04T03:16:38;102901.82;;;14.94;36.00
49063;BME280;34876;51.464;-0.150;2023-03-04T03:19:07;102901.94;;;15.01;35.79
49063;BME280;34876;51.464;-0.150;2023-03-04T03:21:36;102911.52;;;13.16;38.79
49063;BME280;34876;51.464;-0.150;2023-03-04T03:24:06;102896.03;;;14.94;36.06
49063;BME280;34876;51.464;-0.150;2023-03-04T03:26:35;102897.77;;;15.52;34.84
49063;BME280;34876;51.464;-0.150;2023-03-04T03:29:04;102916.85;;;13.06;36.69
49063;BME280;34876;51.464;-0.150;2023-03-04T03:31:32;102919.40;;;11.12;41.13
49063;BME280;34876;51.464;-0.150;2023-03-04T03:34:01;102915.83;;;11.35;41.93
49063;BME280;34876;51.464;-0.150;2023-03-04T03:36:30;102912.53;;;11.31;42.86
49063;BME280;34876;51.464;-0.150;2023-03-04T03:38:59;102906.69;;;13.39;39.25
49063;BME280;34876;51.464;-0.150;2023-03-04T03:41:28;102907.32;;;14.71;34.87
49063;BME280;34876;51.464;-0.150;2023-03-04T03:43:57;102905.06;;;15.23;35.39
49063;BME280;34876;51.464;-0.150;2023-03-04T03:46:26;102908.14;;;14.90;36.01
49063;BME280;34876;51.464;-0.150;2023-03-04T03:48:55;102904.84;;;15.48;34.40
49063;BME280;34876;51.464;-0.150;2023-03-04T03:51:23;102902.63;;;15.58;34.59
49063;BME280;34876;51.464;-0.150;2023-03-04T03:53:53;102902.13;;;15.89;34.08
49063;BME280;34876;51.464;-0.150;2023-03-04T03:56:21;102897.42;;;15.86;33.75
49063;BME280;34876;51.464;-0.150;2023-03-04T03:58:50;102898.46;;;15.45;34.63
49063;BME280;34876;51.464;-0.150;2023-03-04T04:01:19;102904.29;;;14.19;36.55
49063;BME280;34876;51.464;-0.150;2023-03-04T04:03:48;102903.15;;;14.59;36.72
49063;BME280;34876;51.464;-0.150;2023-03-04T04:06:18;102894.36;;;15.81;34.27
49063;BME280;34876;51.464;-0.150;2023-03-04T04:08:47;102894.42;;;15.64;34.44
49063;BME280;34876;51.464;-0.150;2023-03-04T04:11:16;102893.56;;;15.43;34.83
49063;BME280;34876;51.464;-0.150;2023-03-04T04:13:45;102891.57;;;16.14;33.57
49063;BME280;34876;51.464;-0.150;2023-03-04T04:16:14;102894.67;;;15.67;34.41
49063;BME280;34876;51.464;-0.150;2023-03-04T04:18:43;102895.82;;;16.05;33.76
49063;BME280;34876;51.464;-0.150;2023-03-04T04:21:12;102894.02;;;16.01;33.78
49063;BME280;34876;51.464;-0.150;2023-03-04T04:23:42;102894.56;;;15.50;34.70
49063;BME280;34876;51.464;-0.150;2023-03-04T04:26:11;102892.58;;;15.70;34.39
49063;BME280;34876;51.464;-0.150;2023-03-04T04:28:40;102895.43;;;13.91;37.16
49063;BME280;34876;51.464;-0.150;2023-03-04T04:31:09;102898.94;;;14.20;36.96
49063;BME280;34876;51.464;-0.150;2023-03-04T04:33:38;102902.32;;;14.77;34.65
49063;BME280;34876;51.464;-0.150;2023-03-04T04:36:09;102899.60;;;15.54;34.88
49063;BME280;34876;51.464;-0.150;2023-03-04T04:38:41;102900.54;;;15.82;34.26
49063;BME280;34876;51.464;-0.150;2023-03-04T04:41:20;102905.23;;;16.07;33.79
49063;BME280;34876;51.464;-0.150;2023-03-04T04:43:50;102909.25;;;15.47;34.77
49063;BME280;34876;51.464;-0.150;2023-03-04T04:46:19;102907.50;;;15.62;34.59
49063;BME280;34876;51.464;-0.150;2023-03-04T04:48:49;102911.60;;;15.80;34.32
49063;BME280;34876;51.464;-0.150;2023-03-04T04:51:18;102909.20;;;16.01;33.92
49063;BME280;34876;51.464;-0.150;2023-03-04T04:53:48;102909.05;;;16.09;33.76
49063;BME280;34876;51.464;-0.150;2023-03-04T04:56:20;102915.13;;;15.18;35.45
49063;BME280;34876;51.464;-0.150;2023-03-04T04:58:49;102916.15;;;14.44;37.08
49063;BME280;34876;51.464;-0.150;2023-03-04T05:01:19;102918.35;;;14.09;38.27
49063;BME280;34876;51.464;-0.150;2023-03-04T05:03:48;102914.24;;;15.62;35.00
49063;BME280;34876;51.464;-0.150;2023-03-04T05:06:18;102922.14;;;14.97;36.41
49063;BME280;34876;51.464;-0.150;2023-03-04T05:08:49;102921.22;;;14.31;37.71
49063;BME280;34876;51.464;-0.150;2023-03-04T05:11:19;102928.14;;;13.38;39.79
49063;BME280;34876;51.464;-0.150;2023-03-04T05:13:49;102924.43;;;14.58;37.38
49063;BME280;34876;51.464;-0.150;2023-03-04T05:16:18;102928.28;;;14.45;37.61
49063;BME280;34876;51.464;-0.150;2023-03-04T05:18:47;102932.83;;;15.21;36.07
49063;BME280;34876;51.464;-0.150;2023-03-04T05:21:17;102934.19;;;15.45;35.51
49063;BME280;34876;51.464;-0.150;2023-03-04T05:23:46;102940.62;;;14.73;36.93
49063;BME280;34876;51.464;-0.150;2023-03-04T05:26:16;102933.39;;;15.77;35.14
49063;BME280;34876;51.464;-0.150;2023-03-04T05:28:45;102938.96;;;14.00;38.59
49063;BME280;34876;51.464;-0.150;2023-03-04T05:31:15;102934.33;;;15.49;35.54
49063;BME280;34876;51.464;-0.150;2023-03-04T05:33:44;102934.94;;;15.74;34.95
49063;BME280;34876;51.464;-0.150;2023-03-04T05:36:13;102928.68;;;16.20;34.12
49063;BME280;34876;51.464;-0.150;2023-03-04T05:38:42;102933.15;;;16.20;34.13
49063;BME280;34876;51.464;-0.150;2023-03-04T05:41:11;102933.95;;;15.83;34.78
49063;BME280;34876;51.464;-0.150;2023-03-04T05:43:39;102933.10;;;16.24;34.00
49063;BME280;34876;51.464;-0.150;2023-03-04T05:46:12;102937.29;;;16.38;33.74
49063;BME280;34876;51.464;-0.150;2023-03-04T05:48:42;102932.44;;;16.33;33.82
49063;BME280;34876;51.464;-0.150;2023-03-04T05:51:11;102933.49;;;16.42;33.66
49063;BME280;34876;51.464;-0.150;2023-03-04T05:53:41;102927.95;;;16.39;33.73
49063;BME280;34876;51.464;-0.150;2023-03-04T05:56:11;102930.66;;;16.45;33.62
49063;BME280;34876;51.464;-0.150;2023-03-04T05:58:41;102929.78;;;16.49;33.56
49063;BME280;34876;51.464;-0.150;2023-03-04T06:01:10;102938.58;;;15.60;35.28
49063;BME280;34876;51.464;-0.150;2023-03-04T06:03:40;102938.09;;;15.64;35.16
49063;BME280;34876;51.464;-0.150;2023-03-04T06:06:10;102940.22;;;15.70;35.28
49063;BME280;34876;51.464;-0.150;2023-03-04T06:08:38;102936.61;;;16.24;34.10
49063;BME280;34876;51.464;-0.150;2023-03-04T06:11:08;102948.18;;;15.10;36.49
49063;BME280;34876;51.464;-0.150;2023-03-04T06:13:37;102951.87;;;13.99;38.72
49063;BME280;34876;51.464;-0.150;2023-03-04T06:16:07;102943.84;;;15.24;36.25
49063;BME280;34876;51.464;-0.150;2023-03-04T06:18:37;102941.04;;;15.71;35.30
49063;BME280;34876;51.464;-0.150;2023-03-04T06:21:06;102940.25;;;15.99;34.69
49063;BME280;34876;51.464;-0.150;2023-03-04T06:23:35;102937.68;;;15.79;34.77
49063;BME280;34876;51.464;-0.150;2023-03-04T06:26:04;102936.72;;;15.80;35.05
49063;BME280;34876;51.464;-0.150;2023-03-04T06:28:33;102939.90;;;16.06;34.48
49063;BME280;34876;51.464;-0.150;2023-03-04T06:31:03;102943.76;;;14.68;36.76
49063;BME280;34876;51.464;-0.150;2023-03-04T06:33:32;102937.82;;;16.02;34.66
49063;BME280;34876;51.464;-0.150;2023-03-04T06:36:02;102932.52;;;16.16;34.26
49063;BME280;34876;51.464;-0.150;2023-03-04T06:38:31;102935.63;;;16.32;34.03
49063;BME280;34876;51.464;-0.150;2023-03-04T06:41:06;102938.38;;;16.17;34.25
49063;BME280;34876;51.464;-0.150;2023-03-04T06:43:36;102943.57;;;16.12;34.31
49063;BME280;34876;51.464;-0.150;2023-03-04T06:46:05;102946.27;;;16.10;34.41
49063;BME280;34876;51.464;-0.150;2023-03-04T06:48:34;102954.35;;;15.42;35.33
49063;BME280;34876;51.464;-0.150;2023-03-04T06:51:05;102959.01;;;15.58;35.15
49063;BME280;34876;51.464;-0.150;2023-03-04T06:53:34;102958.97;;;15.97;34.66
49063;BME280;34876;51.464;-0.150;2023-03-04T06:56:06;102955.92;;;16.06;34.54
49063;BME280;34876;51.464;-0.150;2023-03-04T06:58:35;102953.81;;;16.34;34.04
49063;BME280;34876;51.464;-0.150;2023-03-04T07:01:13;102955.86;;;16.11;34.38
49063;BME280;34876;51.464;-0.150;2023-03-04T07:03:44;102965.68;;;15.10;36.42
49063;BME280;34876;51.464;-0.150;2023-03-04T07:06:16;102962.97;;;15.82;35.05
49063;BME280;34876;51.464;-0.150;2023-03-04T07:08:46;102961.02;;;16.14;34.41
49063;BME280;34876;51.464;-0.150;2023-03-04T07:11:16;102965.00;;;16.41;33.90
49063;BME280;34876;51.464;-0.150;2023-03-04T07:13:46;102966.40;;;16.46;33.82
49063;BME280;34876;51.464;-0.150;2023-03-04T07:16:17;102972.32;;;16.50;33.69
49063;BME280;34876;51.464;-0.150;2023-03-04T07:18:46;102976.55;;;16.42;33.85
49063;BME280;34876;51.464;-0.150;2023-03-04T07:21:16;102974.84;;;16.49;33.69
49063;BME280;34876;51.464;-0.150;2023-03-04T07:23:46;102978.13;;;16.06;34.44
49063;BME280;34876;51.464;-0.150;2023-03-04T07:26:16;102984.52;;;14.69;36.91
49063;BME280;34876;51.464;-0.150;2023-03-04T07:28:45;102985.79;;;15.70;35.28
49063;BME280;34876;51.464;-0.150;2023-03-04T07:31:21;102980.06;;;15.92;34.92
49063;BME280;34876;51.464;-0.150;2023-03-04T07:33:50;102980.59;;;16.36;34.04
49063;BME280;34876;51.464;-0.150;2023-03-04T07:36:19;102981.84;;;16.29;34.14
49063;BME280;34876;51.464;-0.150;2023-03-04T07:38:49;102980.49;;;16.25;34.23
49063;BME280;34876;51.464;-0.150;2023-03-04T07:41:18;102980.03;;;16.45;33.86
49063;BME280;34876;51.464;-0.150;2023-03-04T07:43:47;102980.17;;;16.43;33.93
49063;BME280;34876;51.464;-0.150;2023-03-04T07:46:17;102985.14;;;16.03;34.67
49063;BME280;34876;51.464;-0.150;2023-03-04T07:48:47;102983.29;;;16.43;33.95
49063;BME280;34876;51.464;-0.150;2023-03-04T07:51:18;102987.90;;;16.00;34.79
49063;BME280;34876;51.464;-0.150;2023-03-04T07:53:49;102990.41;;;16.41;34.01
49063;BME280;34876;51.464;-0.150;2023-03-04T07:56:21;102993.58;;;16.07;34.73
49063;BME280;34876;51.464;-0.150;2023-03-04T07:58:51;102990.22;;;16.48;33.88
49063;BME280;34876;51.464;-0.150;2023-03-04T08:01:22;102993.20;;;16.55;33.75
49063;BME280;34876;51.464;-0.150;2023-03-04T08:03:51;102995.78;;;16.10;34.51
49063;BME280;34876;51.464;-0.150;2023-03-04T08:06:22;103003.95;;;15.85;35.07
49063;BME280;34876;51.464;-0.150;2023-03-04T08:08:55;103003.80;;;15.89;35.03
49063;BME280;34876;51.464;-0.150;2023-03-04T08:11:26;103002.56;;;15.79;35.32
49063;BME280;34876;51.464;-0.150;2023-03-04T08:13:55;102997.47;;;16.19;34.54
49063;BME280;34876;51.464;-0.150;2023-03-04T08:16:25;102997.77;;;16.27;34.93
49063;BME280;34876;51.464;-0.150;2023-03-04T08:18:56;102998.04;;;16.43;34.04
49063;BME280;34876;51.464;-0.150;2023-03-04T08:21:26;103002.57;;;16.42;34.07
49063;BME280;34876;51.464;-0.150;2023-03-04T08:23:57;103004.97;;;15.96;34.94
49063;BME280;34876;51.464;-0.150;2023-03-04T08:26:28;103004.88;;;16.31;34.36
49063;BME280;34876;51.464;-0.150;2023-03-04T08:29:00;103000.95;;;16.51;33.97
49063;BME280;34876;51.464;-0.150;2023-03-04T08:31:29;103006.98;;;15.57;35.72
49063;BME280;34876;51.464;-0.150;2023-03-04T08:34:01;103003.48;;;16.05;34.85
49063;BME280;34876;51.464;-0.150;2023-03-04T08:36:30;103008.52;;;15.38;35.87
49063;BME280;34876;51.464;-0.150;2023-03-04T08:38:59;103007.78;;;15.87;35.33
49063;BME280;34876;51.464;-0.150;2023-03-04T08:41:28;103009.54;;;16.23;34.63
49063;BME280;34876;51.464;-0.150;2023-03-04T08:43:58;103013.42;;;15.47;35.79
49063;BME280;34876;51.464;-0.150;2023-03-04T08:46:28;103011.17;;;16.17;34.67
49063;BME280;34876;51.464;-0.150;2023-03-04T08:48:57;103012.05;;;14.65;37.70
49063;BME280;34876;51.464;-0.150;2023-03-04T08:51:26;103007.41;;;15.12;36.75
49063;BME280;34876;51.464;-0.150;2023-03-04T08:53:56;103003.04;;;15.24;36.53
49063;BME280;34876;51.464;-0.150;2023-03-04T08:56:25;103003.18;;;15.19;36.73
49063;BME280;34876;51.464;-0.150;2023-03-04T08:58:54;103000.57;;;16.17;34.76
49063;BME280;34876;51.464;-0.150;2023-03-04T09:01:23;103002.54;;;15.74;35.24
49063;BME280;34876;51.464;-0.150;2023-03-04T09:03:52;103002.23;;;14.56;37.69
49063;BME280;34876;51.464;-0.150;2023-03-04T09:06:20;102999.76;;;15.46;36.08
49063;BME280;34876;51.464;-0.150;2023-03-04T09:08:49;103000.38;;;14.73;37.65
49063;BME280;34876;51.464;-0.150;2023-03-04T09:11:18;102995.61;;;15.88;35.29
49063;BME280;34876;51.464;-0.150;2023-03-04T09:13:47;102995.83;;;15.50;35.99
49063;BME280;34876;51.464;-0.150;2023-03-04T09:16:16;102996.84;;;15.26;36.46
49063;BME280;34876;51.464;-0.150;2023-03-04T09:18:46;102995.37;;;15.58;35.89
49063;BME280;34876;51.464;-0.150;2023-03-04T09:21:14;102997.72;;;15.71;35.95
49063;BME280;34876;51.464;-0.150;2023-03-04T09:23:44;102990.55;;;16.09;35.12
49063;BME280;34876;51.464;-0.150;2023-03-04T09:26:16;102995.73;;;15.08;36.85
49063;BME280;34876;51.464;-0.150;2023-03-04T09:28:49;102998.41;;;14.76;37.54
49063;BME280;34876;51.464;-0.150;2023-03-04T09:31:19;102999.77;;;14.94;37.28
49063;BME280;34876;51.464;-0.150;2023-03-04T09:33:50;103005.79;;;15.22;36.46
49063;BME280;34876;51.464;-0.150;2023-03-04T09:36:21;103001.88;;;15.14;36.97
49063;BME280;34876;51.464;-0.150;2023-03-04T09:38:51;103000.60;;;15.38;36.17
49063;BME280;34876;51.464;-0.150;2023-03-04T09:41:22;102994.36;;;16.13;34.99
49063;BME280;34876;51.464;-0.150;2023-03-04T09:43:53;103000.40;;;15.57;35.84
49063;BME280;34876;51.464;-0.150;2023-03-04T09:46:31;102999.05;;;14.72;37.52
49063;BME280;34876;51.464;-0.150;2023-03-04T09:49:01;103003.57;;;15.51;36.15
49063;BME280;34876;51.464;-0.150;2023-03-04T09:51:41;103001.27;;;15.05;36.88
49063;BME280;34876;51.464;-0.150;2023-03-04T09:54:19;102999.52;;;15.63;35.93
49063;BME280;34876;51.464;-0.150;2023-03-04T09:56:50;102998.31;;;15.53;36.07
49063;BME280;34876;51.464;-0.150;2023-03-04T09:59:30;102998.66;;;15.21;36.59
49063;BME280;34876;51.464;-0.150;2023-03-04T10:02:14;102998.88;;;14.72;37.47
49063;BME280;34876;51.464;-0.150;2023-03-04T10:04:49;102994.08;;;15.53;36.13
49063;BME280;34876;51.464;-0.150;2023-03-04T10:07:23;102991.35;;;16.06;35.06
49063;BME280;34876;51.464;-0.150;2023-03-04T10:09:58;102990.64;;;16.21;34.67
49063;BME280;34876;51.464;-0.150;2023-03-04T10:12:29;102994.60;;;16.36;34.28
49063;BME280;34876;51.464;-0.150;2023-03-04T10:15:03;102997.13;;;15.32;36.13
49063;BME280;34876;51.464;-0.150;2023-03-04T10:17:35;102993.31;;;15.77;35.64
49063;BME280;34876;51.464;-0.150;2023-03-04T10:20:14;102988.71;;;16.28;34.62
49063;BME280;34876;51.464;-0.150;2023-03-04T10:22:46;102996.87;;;14.94;36.17
49063;BME280;34876;51.464;-0.150;2023-03-04T10:25:19;102994.67;;;15.62;35.68
49063;BME280;34876;51.464;-0.150;2023-03-04T10:27:51;102992.18;;;15.97;35.33
49063;BME280;34876;51.464;-0.150;2023-03-04T10:30:29;102994.90;;;16.08;34.98
49063;BME280;34876;51.464;-0.150;2023-03-04T10:33:00;102999.50;;;15.28;35.89
49063;BME280;34876;51.464;-0.150;2023-03-04T10:35:33;102998.97;;;15.07;36.47
49063;BME280;34876;51.464;-0.150;2023-03-04T10:38:05;102996.60;;;15.43;36.15
49063;BME280;34876;51.464;-0.150;2023-03-04T10:40:39;102994.21;;;16.11;34.71
49063;BME280;34876;51.464;-0.150;2023-03-04T10:43:14;102991.74;;;15.21;36.62
49063;BME280;34876;51.464;-0.150;2023-03-04T10:45:43;102988.91;;;15.94;34.71
49063;BME280;34876;51.464;-0.150;2023-03-04T10:48:19;102985.92;;;14.68;36.54
49063;BME280;34876;51.464;-0.150;2023-03-04T10:50:47;102988.51;;;14.46;36.35
49063;BME280;34876;51.464;-0.150;2023-03-04T10:53:27;102983.43;;;14.18;38.84
49063;BME280;34876;51.464;-0.150;2023-03-04T10:55:57;102971.53;;;15.55;35.92
49063;BME280;34876;51.464;-0.150;2023-03-04T10:58:26;102965.78;;;16.02;34.73
49063;BME280;34876;51.464;-0.150;2023-03-04T11:01:01;102967.56;;;16.08;34.91
49063;BME280;34876;51.464;-0.150;2023-03-04T11:03:33;102966.66;;;15.50;35.24
49063;BME280;34876;51.464;-0.150;2023-03-04T11:06:09;102957.79;;;16.28;34.56
49063;BME280;34876;51.464;-0.150;2023-03-04T11:08:53;102958.20;;;16.16;34.76
49063;BME280;34876;51.464;-0.150;2023-03-04T11:11:24;102958.69;;;16.22;34.59
49063;BME280;34876;51.464;-0.150;2023-03-04T11:13:59;102954.26;;;16.43;33.98
49063;BME280;34876;51.464;-0.150;2023-03-04T11:16:31;102955.39;;;16.55;34.06
49063;BME280;34876;51.464;-0.150;2023-03-04T11:19:12;102957.92;;;16.01;34.74
49063;BME280;34876;51.464;-0.150;2023-03-04T11:21:43;102953.42;;;16.33;34.44
49063;BME280;34876;51.464;-0.150;2023-03-04T11:24:14;102953.69;;;16.16;34.78
49063;BME280;34876;51.464;-0.150;2023-03-04T11:26:47;102952.02;;;16.43;34.21
49063;BME280;34876;51.464;-0.150;2023-03-04T11:29:20;102953.04;;;15.01;35.91
49063;BME280;34876;51.464;-0.150;2023-03-04T11:31:55;102950.49;;;16.07;33.78
49063;BME280;34876;51.464;-0.150;2023-03-04T11:34:36;102942.72;;;16.23;34.61
49063;BME280;34876;51.464;-0.150;2023-03-04T11:37:12;102946.71;;;16.30;34.51
49063;BME280;34876;51.464;-0.150;2023-03-04T11:39:49;102948.23;;;14.41;38.00
49063;BME280;34876;51.464;-0.150;2023-03-04T11:42:28;102945.39;;;15.40;35.80
49063;BME280;34876;51.464;-0.150;2023-03-04T11:45:00;102947.68;;;14.06;37.26
49063;BME280;34876;51.464;-0.150;2023-03-04T11:47:41;102938.39;;;15.56;35.93
49063;BME280;34876;51.464;-0.150;2023-03-04T11:50:26;102940.97;;;16.00;35.06
49063;BME280;34876;51.464;-0.150;2023-03-04T11:53:15;102935.76;;;16.40;34.25
49063;BME280;34876;51.464;-0.150;2023-03-04T11:55:53;102935.04;;;16.21;34.57
49063;BME280;34876;51.464;-0.150;2023-03-04T11:58:39;102937.76;;;14.55;37.88
49063;BME280;34876;51.464;-0.150;2023-03-04T12:01:15;102939.87;;;14.76;36.27
49063;BME280;34876;51.464;-0.150;2023-03-04T12:03:59;102937.47;;;14.30;38.35
49063;BME280;34876;51.464;-0.150;2023-03-04T12:06:43;102931.43;;;15.61;35.88
49063;BME280;34876;51.464;-0.150;2023-03-04T12:10:00;102932.03;;;15.01;36.35
49063;BME280;34876;51.464;-0.150;2023-03-04T12:12:47;102921.71;;;15.80;35.33
49063;BME280;34876;51.464;-0.150;2023-03-04T12:15:25;102925.59;;;14.71;37.48
49063;BME280;34876;51.464;-0.150;2023-03-04T12:18:09;102924.23;;;13.62;38.61
49063;BME280;34876;51.464;-0.150;2023-03-04T12:20:52;102918.13;;;15.27;35.35
49063;BME280;34876;51.464;-0.150;2023-03-04T12:23:40;102924.01;;;12.40;40.62
49063;BME280;34876;51.464;-0.150;2023-03-04T12:26:23;102914.86;;;13.83;37.87
49063;BME280;34876;51.464;-0.150;2023-03-04T12:28:57;102900.37;;;15.49;36.03
49063;BME280;34876;51.464;-0.150;2023-03-04T12:31:34;102896.92;;;15.42;36.12
49063;BME280;34876;51.464;-0.150;2023-03-04T12:34:27;102901.94;;;15.01;35.92
49063;BME280;34876;51.464;-0.150;2023-03-04T12:37:18;102891.51;;;15.86;35.32
49063;BME280;34876;51.464;-0.150;2023-03-04T12:40:03;102890.03;;;15.94;35.00
49063;BME280;34876;51.464;-0.150;2023-03-04T12:42:52;102889.24;;;16.35;34.27
49063;BME280;34876;51.464;-0.150;2023-03-04T12:45:31;102884.13;;;16.29;34.32
49063;BME280;34876;51.464;-0.150;2023-03-04T12:48:10;102884.09;;;15.24;34.27
49063;BME280;34876;51.464;-0.150;2023-03-04T12:50:53;102871.62;;;15.89;35.09
49063;BME280;34876;51.464;-0.150;2023-03-04T12:53:29;102867.93;;;16.21;34.35
49063;BME280;34876;51.464;-0.150;2023-03-04T12:56:03;102866.33;;;16.24;34.30
49063;BME280;34876;51.464;-0.150;2023-03-04T12:58:34;102857.47;;;16.47;33.91
49063;BME280;34876;51.464;-0.150;2023-03-04T13:01:10;102855.78;;;15.73;34.64
49063;BME280;34876;51.464;-0.150;2023-03-04T13:03:47;102858.14;;;15.39;35.69
49063;BME280;34876;51.464;-0.150;2023-03-04T13:06:31;102854.29;;;16.14;34.61